Onweer radar Meer informatie blitzortung!


Regen radar Meer informatie rain snow radar


Bezoek onze andere website:

Template documentation
and downloads

And another site



Het weer levert geen direct gevaar op.    Er zijn geen waarschuwingen afgegeven.

METAR rapporten vliegvelden

   
EHRD - Rotterdam
Gewijzigd: 22-10-2018 13:55
Grotendeels bewolkt  
Grotendeels bewolkt  
   Wind: Noorden 14.8 km/h
Wind: Noorden 14.8 km/h
Temperatuur: 15°C
Dauwpunt: 8°C
Vochtigheid: 63%
Barometer: 1033 hPa
Bewolking: Mostly Cloudy
Zicht: meer dan 10 km
Bewolking: Gedeeltelijk bewolkt 3300 ft,
Grotendeels bewolkt 4000 ft
EHRD 221155Z AUTO 36008KT 310V040 9999 SCT033 BKN040 15/08 Q1033 NOSIG
EHAM - Amsterdam
Gewijzigd: 22-10-2018 13:55
Gedeeltelijk bewolkt  
Gedeeltelijk bewolkt  
   Wind: Noorden 18.5 km/h
Wind: Noorden 18.5 km/h
Temperatuur: 14°C
Dauwpunt: 7°C
Vochtigheid: 63%
Barometer: 1033 hPa
Bewolking: Partly Cloudy
Zicht: meer dan 10 km
Bewolking: Gedeeltelijk bewolkt 2900 ft
EHAM 221155Z 35010KT 320V040 9999 SCT029 14/07 Q1033 NOSIG
EHEH - Eindhoven
Gewijzigd: 22-10-2018 13:55
Helder  
Helder  
   Wind: NNO 22.2 km/h
Wind: NNO 22.2 km/h
Temperatuur: 16°C
Dauwpunt: 6°C
Vochtigheid: 52%
Barometer: 1032 hPa
Bewolking: Clear
Zicht: meer dan 10 km
Bewolking: Helder ft
EHEH 221155Z AUTO 02012KT 320V050 9999 NCD 16/06 Q1032 BLU 01010G20KT 9999 FEW030 SCT035
EHBK - Maastricht
Gewijzigd: 22-10-2018 13:55
Grotendeels bewolkt  
Grotendeels bewolkt  
   Wind: NO 13 km/h
Wind: NO 13 km/h
Temperatuur: 13°C
Dauwpunt: 10°C
Vochtigheid: 82%
Barometer: 1032 hPa
Bewolking: Mostly Cloudy
Zicht: meer dan 10 km
Bewolking: Licht bewolkt 2000 ft,
Grotendeels bewolkt 2800 ft,
Grotendeels bewolkt 3100 ft
EHBK 221155Z AUTO 04007KT 010V080 9999 FEW020 BKN028 BKN031 13/10 Q1032 NOSIG
EDDL - Brussel
Gewijzigd: 22-10-2018 13:50
Grotendeels bewolkt  
Grotendeels bewolkt  
   Wind: NO 13 km/h
Wind: NO 13 km/h
Temperatuur: 14°C
Dauwpunt: 9°C
Vochtigheid: 72%
Barometer: 1032 hPa
Bewolking: Mostly Cloudy
Zicht: meer dan 10 km
Bewolking: Licht bewolkt 1800 ft,
Grotendeels bewolkt 3800 ft
EDDL 221150Z 04007KT 9999 FEW018 BKN038 14/09 Q1032 NOSIG
EBOS - Dusseldorf
Gewijzigd: 22-10-2018 13:50
Grotendeels bewolkt  
Grotendeels bewolkt  
   Wind: Noorden 27.8 km/h
Wind: Noorden 27.8 km/h
Temperatuur: 14°C
Dauwpunt: 6°C
Vochtigheid: 59%
Barometer: 1035 hPa
Bewolking: Mostly Cloudy
Zicht: meer dan 10 km
Bewolking: Licht bewolkt 3200 ft,
Grotendeels bewolkt 3800 ft
EBOS 221150Z 01015KT 9999 FEW032 BKN038 14/06 Q1035 NOSIG

Script ontwikkeld door  Saratoga-weather.org Aangepast voor de template door  Weerstation Leuven

U vindt ons ook hier:

Het Weer Aktueel

European Weather Network

Weather Underground

WeatherlinkIP

HAMweather, WeatherForYou, PWS Weather

Apparatuur in gebruik:

Weerstation
Davis VP2

Weerprogramma
Cumulus

Weercomputer
Zotac

Webleverancier
Quick Servers

Davis VP2

Cumulus

Zotac

Quick Servers